Time;durP1;ratioP1;P1;durP2;ratioP2;P2;SDS_P1;SDS_P2;PMS_P1;PMS_P2;Temp;Humidity;BMP_temperature;BMP_pressure;BME280_temperature;BME280_humidity;BME280_pressure;Samples;Min_cycle;Max_cycle;Signal;HPM_P1;HPM_P2
2022/05/11 00:03:27;;;;;;;15.37;13.87;;;;;;;;;;10370852;28;20042;-77
2022/05/11 00:08:29;;;;;;;15.30;13.75;;;;;;;;;;10368090;28;20337;-78
2022/05/11 00:13:31;;;;;;;16.77;14.97;;;;;;;;;;10378455;28;20034;-77
2022/05/11 00:18:32;;;;;;;;;;;;;;;;;;10370685;28;20041;-76
2022/05/11 00:23:32;;;;;;;15.75;14.25;;;;;;;;;;10389266;28;19960;-77
2022/05/11 00:28:34;;;;;;;17.00;15.23;;;;;;;;;;10374499;28;20096;-77
2022/05/11 00:33:35;;;;;;;15.10;13.57;;;;;;;;;;10366478;28;20033;-78
2022/05/11 00:38:37;;;;;;;17.83;15.90;;;;;;;;;;10368472;28;20054;-77
2022/05/11 00:43:44;;;;;;;16.92;15.32;;;;;;;;;;10389871;28;20053;-79
2022/05/11 00:54:10;;;;;;;16.88;15.18;;;;;;;;;;10385975;28;20052;-77
2022/05/11 00:59:13;;;;;;;18.15;15.98;;;;;;;;;;10333985;28;20042;-78
2022/05/11 01:04:18;;;;;;;15.45;13.85;;;;;;;;;;10368867;28;20053;-78
2022/05/11 01:09:18;;;;;;;15.07;13.55;;;;;;;;;;10379063;28;20100;-76
2022/05/11 01:14:21;;;;;;;16.43;14.83;;;;;;;;;;10345190;28;20181;-78
2022/05/11 01:19:26;;;;;;;16.95;15.18;;;;;;;;;;10346097;28;20273;-78
2022/05/11 01:24:29;;;;;;;15.95;14.43;;;;;;;;;;10348452;28;20042;-77
2022/05/11 01:29:29;;;;;;;17.25;15.40;;;;;;;;;;10385259;28;20092;-76
2022/05/11 01:34:33;;;;;;;15.82;14.32;;;;;;;;;;10374720;28;20080;-77
2022/05/11 01:39:34;;;;;;;17.38;15.57;;;;;;;;;;10356153;28;20036;-77
2022/05/11 01:44:37;;;;;;;17.23;15.43;;;;;;;;;;10360280;28;20517;-77
2022/05/11 01:49:43;;;;;;;17.73;15.85;;;;;;;;;;10365071;28;20042;-78
2022/05/11 01:54:44;;;;;;;19.08;15.88;;;;;;;;;;10367953;28;20176;-76
2022/05/11 01:59:44;;;;;;;18.50;15.40;;;;;;;;;;10367902;28;20092;-76
2022/05/11 02:10:05;;;;;;;17.45;15.63;;;;;;;;;;10374457;28;20467;-76
2022/05/11 02:15:07;;;;;;;16.97;15.17;;;;;;;;;;10384423;28;20053;-77
2022/05/11 02:20:09;;;;;;;18.60;16.50;;;;;;;;;;10370910;28;20315;-76
2022/05/11 02:25:13;;;;;;;17.17;15.38;;;;;;;;;;10372164;28;20474;-77
2022/05/11 02:30:16;;;;;;;17.75;15.68;;;;;;;;;;10390374;28;20468;-77
2022/05/11 02:35:17;;;;;;;;;;;;;;;;;;10386678;28;20322;-77
2022/05/11 02:40:20;;;;;;;17.40;15.60;;;;;;;;;;10347296;28;19913;-78
2022/05/11 02:45:42;;;;;;;17.55;15.75;;;;;;;;;;10383651;28;20045;-77
2022/05/11 02:50:49;;;;;;;18.42;15.90;;;;;;;;;;10386122;28;20054;-78
2022/05/11 02:55:50;;;;;;;18.30;16.13;;;;;;;;;;10372239;28;20065;-77
2022/05/11 03:00:53;;;;;;;19.08;16.42;;;;;;;;;;10346570;28;20048;-77
2022/05/11 03:05:54;;;;;;;20.92;16.52;;;;;;;;;;10362416;28;20128;-78
2022/05/11 03:10:55;;;;;;;17.20;15.30;;;;;;;;;;10356358;28;20038;-77
2022/05/11 03:15:55;;;;;;;17.55;15.52;;;;;;;;;;10369040;28;20049;-76
2022/05/11 03:20:56;;;;;;;18.13;15.80;;;;;;;;;;10357519;28;20391;-76
2022/05/11 03:26:00;;;;;;;18.75;16.08;;;;;;;;;;10398252;28;20046;-77
2022/05/11 03:31:02;;;;;;;21.10;17.95;;;;;;;;;;10400283;28;20085;-76
2022/05/11 03:36:03;;;;;;;18.92;16.30;;;;;;;;;;10351405;28;20037;-76
2022/05/11 03:41:09;;;;;;;19.65;16.92;;;;;;;;;;10378171;28;20030;-78
2022/05/11 03:46:16;;;;;;;18.85;16.83;;;;;;;;;;10372269;28;20045;-77
2022/05/11 03:51:26;;;;;;;19.40;16.70;;;;;;;;;;10375311;28;20057;-76
2022/05/11 03:56:40;;;;;;;21.50;16.95;;;;;;;;;;10337522;28;20038;-77
2022/05/11 04:01:48;;;;;;;18.90;16.38;;;;;;;;;;10353254;28;20041;-78
2022/05/11 04:06:50;;;;;;;18.92;16.77;;;;;;;;;;10341460;28;20046;-78
2022/05/11 04:11:52;;;;;;;21.83;18.02;;;;;;;;;;10352418;28;20049;-77
2022/05/11 04:16:54;;;;;;;18.40;15.13;;;;;;;;;;10368382;28;20442;-78
2022/05/11 04:21:55;;;;;;;20.00;17.23;;;;;;;;;;10375743;28;20049;-77
2022/05/11 04:26:55;;;;;;;19.40;16.80;;;;;;;;;;10386714;28;20052;-77
2022/05/11 04:31:58;;;;;;;19.85;17.02;;;;;;;;;;10353959;28;20038;-77
2022/05/11 04:36:58;;;;;;;17.20;14.57;;;;;;;;;;10349044;28;20255;-78
2022/05/11 04:41:59;;;;;;;20.60;16.53;;;;;;;;;;10364868;28;20054;-77
2022/05/11 04:47:07;;;;;;;21.25;17.33;;;;;;;;;;10364962;28;20379;-77
2022/05/11 04:52:16;;;;;;;19.73;17.17;;;;;;;;;;10339841;28;20048;-78
2022/05/11 04:57:17;;;;;;;21.27;17.20;;;;;;;;;;10373062;28;20046;-77
2022/05/11 05:02:20;;;;;;;15.13;13.00;;;;;;;;;;10376929;28;20046;-78
2022/05/11 05:07:21;;;;;;;;;;;;;;;;;;10384867;28;20058;-78
2022/05/11 05:12:21;;;;;;;17.15;14.90;;;;;;;;;;10376372;28;19980;-79
2022/05/11 05:17:22;;;;;;;16.80;15.05;;;;;;;;;;10366774;28;20115;-80
2022/05/11 05:34:16;;;;;;;16.13;13.90;;;;;;;;;;10362072;28;20047;-79
2022/05/11 05:39:22;;;;;;;15.38;13.52;;;;;;;;;;10380097;28;20069;-77
2022/05/11 05:44:29;;;;;;;18.90;15.43;;;;;;;;;;10386484;28;20045;-79
2022/05/11 05:49:30;;;;;;;19.02;17.02;;;;;;;;;;10379249;28;20281;-78
2022/05/11 05:54:31;;;;;;;17.90;14.90;;;;;;;;;;10354263;28;20120;-79
2022/05/11 05:59:32;;;;;;;19.80;17.65;;;;;;;;;;10361958;28;20089;-77
2022/05/11 06:04:33;;;;;;;19.30;17.20;;;;;;;;;;10363524;28;20073;-77
2022/05/11 06:09:33;;;;;;;19.33;16.20;;;;;;;;;;10380207;28;20045;-75
2022/05/11 06:14:34;;;;;;;21.13;18.33;;;;;;;;;;10355196;28;20038;-77
2022/05/11 06:19:34;;;;;;;23.73;19.25;;;;;;;;;;10360881;28;20072;-75
2022/05/11 06:24:34;;;;;;;22.73;17.50;;;;;;;;;;10375113;28;20041;-75
2022/05/11 06:29:36;;;;;;;25.73;18.30;;;;;;;;;;10374815;28;20055;-75
2022/05/11 06:34:36;;;;;;;24.58;19.95;;;;;;;;;;10358699;28;20277;-77
2022/05/11 06:39:37;;;;;;;22.10;18.67;;;;;;;;;;10333598;28;20033;-75
2022/05/11 06:44:39;;;;;;;23.25;16.92;;;;;;;;;;10378657;28;20069;-78
2022/05/11 06:49:40;;;;;;;25.80;19.63;;;;;;;;;;10415193;28;20034;-78
2022/05/11 07:00:00;;;;;;;33.65;20.98;;;;;;;;;;10368247;28;20115;-75
2022/05/11 07:05:00;;;;;;;34.43;20.23;;;;;;;;;;10376195;28;20061;-75
2022/05/11 07:10:01;;;;;;;25.35;18.17;;;;;;;;;;10376176;28;20273;-74
2022/05/11 07:15:05;;;;;;;20.13;15.30;;;;;;;;;;10364662;28;20049;-74
2022/05/11 07:20:07;;;;;;;15.38;12.52;;;;;;;;;;10376012;28;20464;-75
2022/05/11 07:25:09;;;;;;;13.85;11.88;;;;;;;;;;10376657;28;20070;-74
2022/05/11 07:30:19;;;;;;;12.87;11.67;;;;;;;;;;10382870;28;20042;-75
2022/05/11 07:35:20;;;;;;;16.98;14.05;;;;;;;;;;10376218;28;20041;-75
2022/05/11 07:40:20;;;;;;;12.02;10.82;;;;;;;;;;10364190;28;20045;-74
2022/05/11 07:45:23;;;;;;;12.60;10.80;;;;;;;;;;10375431;28;20117;-74
2022/05/11 07:50:23;;;;;;;10.70;9.70;;;;;;;;;;10375645;28;20072;-75
2022/05/11 07:55:25;;;;;;;11.00;9.88;;;;;;;;;;10357265;28;20120;-74
2022/05/11 08:00:26;;;;;;;9.68;8.68;;;;;;;;;;10375204;28;20100;-75
2022/05/11 08:05:26;;;;;;;9.00;8.10;;;;;;;;;;10374343;28;20099;-74
2022/05/11 08:10:30;;;;;;;10.17;8.10;;;;;;;;;;10373911;28;20348;-75
2022/05/11 08:15:32;;;;;;;8.48;6.60;;;;;;;;;;10373513;28;20042;-75
2022/05/11 08:20:34;;;;;;;8.23;7.20;;;;;;;;;;10358742;28;20033;-75
2022/05/11 08:25:36;;;;;;;8.23;6.63;;;;;;;;;;10381752;28;20105;-73
2022/05/11 08:36:01;;;;;;;9.75;6.10;;;;;;;;;;10373432;28;20048;-74
2022/05/11 08:41:04;;;;;;;9.02;5.97;;;;;;;;;;10373255;28;20137;-74
2022/05/11 08:46:12;;;;;;;6.20;5.65;;;;;;;;;;10372960;28;20477;-74
2022/05/11 08:51:21;;;;;;;6.43;5.82;;;;;;;;;;10373255;28;20060;-76
2022/05/11 08:56:25;;;;;;;6.05;5.03;;;;;;;;;;10373566;28;20445;-76
2022/05/11 09:01:29;;;;;;;5.53;5.03;;;;;;;;;;10360197;28;20053;-74
2022/05/11 09:06:30;;;;;;;5.40;4.72;;;;;;;;;;10360738;28;20054;-74
2022/05/11 09:11:39;;;;;;;6.38;5.10;;;;;;;;;;10349028;28;20034;-75
2022/05/11 09:16:45;;;;;;;6.30;5.63;;;;;;;;;;10363457;28;20057;-74
2022/05/11 09:21:50;;;;;;;4.47;4.07;;;;;;;;;;10381612;28;20042;-75
2022/05/11 09:27:05;;;;;;;5.10;4.35;;;;;;;;;;10367481;28;20100;-74
2022/05/11 09:32:33;;;;;;;10.80;9.77;;;;;;;;;;10358767;28;20379;-73
2022/05/11 09:37:34;;;;;;;6.05;4.13;;;;;;;;;;10369856;28;20117;-75
2022/05/11 09:42:46;;;;;;;5.23;4.73;;;;;;;;;;10372178;28;20041;-76
2022/05/11 09:48:02;;;;;;;4.32;3.60;;;;;;;;;;10371077;28;20057;-75
2022/05/11 09:53:23;;;;;;;4.10;3.35;;;;;;;;;;10342740;28;20092;-75
2022/05/11 09:58:31;;;;;;;7.45;5.90;;;;;;;;;;10352512;28;20504;-73
2022/05/11 10:03:32;;;;;;;3.45;3.25;;;;;;;;;;10358445;28;20049;-75
2022/05/11 10:08:34;;;;;;;3.88;3.47;;;;;;;;;;10350945;28;20053;-74
2022/05/11 10:13:36;;;;;;;4.22;3.85;;;;;;;;;;10370750;28;20030;-75
2022/05/11 10:24:02;;;;;;;4.35;3.95;;;;;;;;;;10372155;28;20093;-75
2022/05/11 10:29:15;;;;;;;5.60;4.28;;;;;;;;;;10396412;28;20492;-76
2022/05/11 10:34:20;;;;;;;4.65;3.95;;;;;;;;;;10382752;28;20458;-75
2022/05/11 10:39:32;;;;;;;3.97;3.60;;;;;;;;;;10390505;28;20049;-76
2022/05/11 10:44:53;;;;;;;3.63;3.33;;;;;;;;;;10372410;28;20046;-75
2022/05/11 10:50:13;;;;;;;3.95;3.58;;;;;;;;;;10345633;28;20121;-78
2022/05/11 10:55:14;;;;;;;4.53;3.92;;;;;;;;;;10381555;28;20061;-77
2022/05/11 11:00:18;;;;;;;6.63;4.90;;;;;;;;;;10364233;28;20129;-77
2022/05/11 11:05:24;;;;;;;4.97;3.80;;;;;;;;;;10365046;28;20049;-77
2022/05/11 11:10:27;;;;;;;5.10;3.95;;;;;;;;;;10371232;28;20464;-75
2022/05/11 11:15:31;;;;;;;3.83;3.58;;;;;;;;;;10354681;28;20045;-74
2022/05/11 11:20:35;;;;;;;4.40;4.00;;;;;;;;;;10369612;28;20130;-76
2022/05/11 11:25:43;;;;;;;4.97;3.75;;;;;;;;;;10360256;28;20104;-77
2022/05/11 11:30:59;;;;;;;4.30;3.90;;;;;;;;;;10344773;28;20120;-76
2022/05/11 11:36:01;;;;;;;4.13;3.60;;;;;;;;;;10376227;28;20460;-76
2022/05/11 11:41:21;;;;;;;4.35;3.70;;;;;;;;;;10360200;28;20080;-77
2022/05/11 11:46:28;;;;;;;3.92;3.63;;;;;;;;;;10361613;28;20050;-78
2022/05/11 11:51:33;;;;;;;4.78;3.85;;;;;;;;;;10380078;28;20061;-80
2022/05/11 11:56:36;;;;;;;4.28;3.13;;;;;;;;;;10382664;28;20052;-77
2022/05/11 12:01:43;;;;;;;4.32;3.40;;;;;;;;;;10371117;28;20038;-78
2022/05/11 12:18:25;;;;;;;4.13;3.53;;;;;;;;;;10375893;28;20042;-79
2022/05/11 12:23:33;;;;;;;3.97;3.15;;;;;;;;;;10347234;28;20032;-79
2022/05/11 12:28:37;;;;;;;4.32;3.60;;;;;;;;;;10368861;28;20396;-77
2022/05/11 12:39:57;;;;;;;4.22;3.10;;;;;;;;;;10380992;28;20030;-77
2022/05/11 12:45:00;;;;;;;3.80;3.33;;;;;;;;;;10381018;28;20026;-78
2022/05/11 12:50:02;;;;;;;4.72;3.75;;;;;;;;;;10389594;28;20036;-78
2022/05/11 12:55:03;;;;;;;5.00;4.07;;;;;;;;;;10401025;28;20061;-78
2022/05/11 13:00:11;;;;;;;4.57;3.75;;;;;;;;;;10389259;28;20033;-79
2022/05/11 13:05:14;;;;;;;4.15;3.35;;;;;;;;;;10408022;28;20049;-81
2022/05/11 13:10:18;;;;;;;3.63;3.20;;;;;;;;;;10377210;28;20381;-79
2022/05/11 13:15:30;;;;;;;5.85;3.50;;;;;;;;;;10378429;28;20093;-78
2022/05/11 13:20:40;;;;;;;3.83;3.42;;;;;;;;;;10393614;28;20045;-78
2022/05/11 13:25:49;;;;;;;3.15;2.95;;;;;;;;;;10387154;28;20077;-78
2022/05/11 13:30:51;;;;;;;3.15;2.95;;;;;;;;;;10393908;28;20049;-78
2022/05/11 13:36:06;;;;;;;3.53;3.22;;;;;;;;;;10368911;28;20381;-78
2022/05/11 13:41:14;;;;;;;4.18;3.42;;;;;;;;;;10309072;28;20050;-78
2022/05/11 13:46:33;;;;;;;5.70;5.15;;;;;;;;;;10351384;28;20065;-77
2022/05/11 13:51:39;;;;;;;3.50;3.20;;;;;;;;;;10367477;28;20033;-79
2022/05/11 13:56:55;;;;;;;3.70;3.40;;;;;;;;;;10370404;28;20120;-80
2022/05/11 14:01:56;;;;;;;4.90;4.03;;;;;;;;;;10390620;28;20038;-79
2022/05/11 14:07:01;;;;;;;3.75;3.45;;;;;;;;;;10384347;28;20397;-81
2022/05/11 14:12:04;;;;;;;4.70;3.60;;;;;;;;;;10377992;28;20180;-79
2022/05/11 14:17:11;;;;;;;4.10;3.70;;;;;;;;;;10397296;28;20096;-79
2022/05/11 14:22:22;;;;;;;4.65;3.72;;;;;;;;;;10420738;28;20050;-80
2022/05/11 14:27:25;;;;;;;3.80;3.45;;;;;;;;;;10376520;28;20047;-80
2022/05/11 14:32:26;;;;;;;3.90;3.60;;;;;;;;;;10395103;28;20092;-80
2022/05/11 14:37:26;;;;;;;3.80;3.50;;;;;;;;;;10379142;28;20261;-78
2022/05/11 14:42:30;;;;;;;4.10;3.70;;;;;;;;;;10382963;28;20058;-79
2022/05/11 14:47:32;;;;;;;5.30;4.53;;;;;;;;;;10392747;28;20049;-78
2022/05/11 14:52:37;;;;;;;5.70;4.40;;;;;;;;;;10384653;28;20037;-80
2022/05/11 15:03:03;;;;;;;4.45;4.05;;;;;;;;;;10401934;28;20094;-77
2022/05/11 15:08:03;;;;;;;5.38;4.70;;;;;;;;;;10391422;28;20049;-78
2022/05/11 15:18:25;;;;;;;4.80;4.40;;;;;;;;;;10358326;28;20070;-80
2022/05/11 15:23:26;;;;;;;5.70;4.43;;;;;;;;;;10339356;28;20042;-79
2022/05/11 15:28:26;;;;;;;4.75;4.07;;;;;;;;;;10344611;28;20066;-79
2022/05/11 15:33:27;;;;;;;4.60;4.10;;;;;;;;;;10327768;28;20049;-79
2022/05/11 15:38:28;;;;;;;4.20;3.90;;;;;;;;;;10355314;28;20473;-79
2022/05/11 15:43:28;;;;;;;4.57;4.10;;;;;;;;;;10356224;28;20053;-78
2022/05/11 15:48:28;;;;;;;4.03;3.73;;;;;;;;;;10325375;28;20237;-80
2022/05/11 15:53:30;;;;;;;13.13;5.27;;;;;;;;;;10367718;28;20031;-80
2022/05/11 15:58:30;;;;;;;;;;;;;;;;;;10371627;28;20031;-78
2022/05/11 16:03:31;;;;;;;4.10;3.70;;;;;;;;;;10349809;28;19937;-78
2022/05/11 16:14:44;;;;;;;4.32;3.95;;;;;;;;;;10365485;28;20801;-79
2022/05/11 16:19:51;;;;;;;4.80;4.32;;;;;;;;;;10377889;28;20409;-80
2022/05/11 16:24:55;;;;;;;4.60;4.00;;;;;;;;;;10368495;28;20096;-79
2022/05/11 16:29:56;;;;;;;4.13;3.72;;;;;;;;;;10364363;28;20046;-79
2022/05/11 16:34:57;;;;;;;;;;;;;;;;;;10369902;28;20120;-79
2022/05/11 16:40:03;;;;;;;4.32;3.80;;;;;;;;;;10387254;28;19910;-79
2022/05/11 16:45:06;;;;;;;5.15;3.70;;;;;;;;;;10390458;28;20124;-81
2022/05/11 16:50:06;;;;;;;4.55;4.07;;;;;;;;;;10390248;28;20053;-79
2022/05/11 16:55:10;;;;;;;7.17;4.33;;;;;;;;;;10391042;28;20046;-80
2022/05/11 17:00:14;;;;;;;4.25;3.85;;;;;;;;;;10386727;28;20068;-79
2022/05/11 17:05:16;;;;;;;7.43;6.00;;;;;;;;;;10386593;28;20060;-81
2022/05/11 17:10:19;;;;;;;5.75;4.28;;;;;;;;;;10405399;28;20064;-80
2022/05/11 17:15:20;;;;;;;6.60;4.18;;;;;;;;;;10413849;28;20173;-80
2022/05/11 17:20:20;;;;;;;6.20;5.60;;;;;;;;;;10397782;28;20049;-81
2022/05/11 17:25:22;;;;;;;4.43;4.03;;;;;;;;;;10372400;28;20107;-80
2022/05/11 17:30:28;;;;;;;6.38;5.45;;;;;;;;;;10376950;28;20038;-81
2022/05/11 17:41:39;;;;;;;4.95;4.50;;;;;;;;;;10408959;28;20030;-79
2022/05/11 17:46:42;;;;;;;5.70;4.45;;;;;;;;;;10368215;28;20046;-78
2022/05/11 17:51:46;;;;;;;5.07;4.57;;;;;;;;;;10360804;28;20041;-78
2022/05/11 17:56:47;;;;;;;5.38;4.60;;;;;;;;;;10384034;28;20034;-78
2022/05/11 18:01:47;;;;;;;6.67;6.07;;;;;;;;;;10386169;28;20149;-79
2022/05/11 18:06:49;;;;;;;9.50;7.50;;;;;;;;;;10366578;28;20057;-78
2022/05/11 18:11:58;;;;;;;6.57;5.97;;;;;;;;;;10382713;28;20057;-80
2022/05/11 18:16:59;;;;;;;6.35;5.60;;;;;;;;;;10369895;28;20048;-79
2022/05/11 18:22:02;;;;;;;6.57;5.50;;;;;;;;;;10365875;28;20041;-80
2022/05/11 18:27:03;;;;;;;6.65;5.47;;;;;;;;;;10382205;28;20057;-81
2022/05/11 18:32:09;;;;;;;6.50;5.90;;;;;;;;;;10381593;28;20037;-80
2022/05/11 18:37:15;;;;;;;7.53;6.20;;;;;;;;;;10396100;28;20046;-81
2022/05/11 18:42:17;;;;;;;8.60;7.75;;;;;;;;;;10387185;28;20061;-85
2022/05/11 18:53:39;;;;;;;7.50;6.32;;;;;;;;;;10412922;28;20078;-79
2022/05/11 18:58:42;;;;;;;6.75;6.03;;;;;;;;;;10405100;28;20034;-80
2022/05/11 19:03:44;;;;;;;6.90;6.20;;;;;;;;;;10412423;28;20044;-79
2022/05/11 19:08:44;;;;;;;7.93;7.07;;;;;;;;;;10403252;28;20299;-80
2022/05/11 19:13:50;;;;;;;8.65;7.10;;;;;;;;;;10364379;28;20045;-80
2022/05/11 19:18:52;;;;;;;8.20;7.05;;;;;;;;;;10396906;28;20110;-80
2022/05/11 19:23:53;;;;;;;7.28;6.57;;;;;;;;;;10394278;28;20041;-80
2022/05/11 19:28:58;;;;;;;7.72;6.93;;;;;;;;;;10389348;28;20064;-80
2022/05/11 19:34:03;;;;;;;7.78;6.68;;;;;;;;;;10366614;28;20062;-79
2022/05/11 19:39:05;;;;;;;6.95;6.25;;;;;;;;;;10390641;28;20121;-80
2022/05/11 19:44:06;;;;;;;12.13;10.83;;;;;;;;;;10374222;28;20068;-78
2022/05/11 19:49:07;;;;;;;9.60;7.28;;;;;;;;;;10369844;28;20079;-78
2022/05/11 19:54:09;;;;;;;9.50;8.05;;;;;;;;;;10387278;28;20056;-79
2022/05/11 19:59:10;;;;;;;8.45;7.00;;;;;;;;;;10354848;28;20041;-80
2022/05/11 20:04:15;;;;;;;9.57;6.95;;;;;;;;;;10374671;28;20042;-79
2022/05/11 20:09:18;;;;;;;9.00;8.10;;;;;;;;;;10404794;28;20049;-80
2022/05/11 20:14:25;;;;;;;6.90;6.25;;;;;;;;;;10376507;28;20049;-79
2022/05/11 20:19:28;;;;;;;6.85;6.25;;;;;;;;;;10389469;28;20069;-79
2022/05/11 20:24:28;;;;;;;7.15;6.53;;;;;;;;;;10393111;28;20034;-79
2022/05/11 20:29:30;;;;;;;6.90;6.20;;;;;;;;;;10372104;28;20080;-79
2022/05/11 20:39:49;;;;;;;7.75;7.03;;;;;;;;;;10393716;28;20034;-79
2022/05/11 20:44:51;;;;;;;7.40;6.75;;;;;;;;;;10385756;28;20349;-80
2022/05/11 20:49:53;;;;;;;8.68;6.78;;;;;;;;;;10398376;28;20042;-82
2022/05/11 20:54:54;;;;;;;9.32;7.45;;;;;;;;;;10397663;28;20072;-80
2022/05/11 20:59:56;;;;;;;9.73;7.50;;;;;;;;;;10399334;28;20049;-79
2022/05/11 21:04:56;;;;;;;7.47;6.72;;;;;;;;;;10396394;28;20059;-79
2022/05/11 21:09:56;;;;;;;6.53;5.93;;;;;;;;;;10362119;28;20054;-78
2022/05/11 21:14:57;;;;;;;6.68;5.97;;;;;;;;;;10387018;28;20336;-79
2022/05/11 21:19:58;;;;;;;6.82;6.05;;;;;;;;;;10382358;28;20038;-77
2022/05/11 21:24:59;;;;;;;6.97;6.23;;;;;;;;;;10399374;28;20037;-78
2022/05/11 21:29:59;;;;;;;7.65;6.82;;;;;;;;;;10378292;28;20155;-78
2022/05/11 21:35:05;;;;;;;8.27;6.80;;;;;;;;;;10392519;28;20034;-79
2022/05/11 21:40:09;;;;;;;7.10;6.43;;;;;;;;;;10385119;28;20132;-78
2022/05/11 21:45:09;;;;;;;7.00;6.15;;;;;;;;;;10380598;28;20042;-78
2022/05/11 21:50:11;;;;;;;7.30;6.53;;;;;;;;;;10380148;28;20046;-79
2022/05/11 21:55:12;;;;;;;7.27;6.53;;;;;;;;;;10359056;28;20049;-79
2022/05/11 22:00:22;;;;;;;7.50;6.83;;;;;;;;;;10365999;28;20042;-78
2022/05/11 22:05:23;;;;;;;8.02;7.22;;;;;;;;;;10373749;28;20107;-78
2022/05/11 22:10:23;;;;;;;8.30;7.50;;;;;;;;;;10338189;28;20092;-77
2022/05/11 22:15:24;;;;;;;8.27;7.60;;;;;;;;;;10384627;28;20077;-77
2022/05/11 22:20:26;;;;;;;8.20;7.40;;;;;;;;;;10399491;28;20087;-78
2022/05/11 22:25:30;;;;;;;7.68;6.88;;;;;;;;;;10388898;28;20449;-80
2022/05/11 22:30:34;;;;;;;7.63;6.85;;;;;;;;;;10386884;28;20092;-78
2022/05/11 22:35:36;;;;;;;7.35;6.63;;;;;;;;;;10392618;28;20091;-77
2022/05/11 22:40:36;;;;;;;9.77;7.05;;;;;;;;;;10392014;28;20089;-78
2022/05/11 22:45:37;;;;;;;7.05;6.40;;;;;;;;;;10395952;28;20511;-78
2022/05/11 22:50:38;;;;;;;7.55;6.85;;;;;;;;;;10384525;28;20026;-77
2022/05/11 22:55:39;;;;;;;6.00;5.35;;;;;;;;;;10386577;28;20034;-79
2022/05/11 23:00:40;;;;;;;7.77;7.07;;;;;;;;;;10381594;28;20100;-79
2022/05/11 23:05:41;;;;;;;7.43;6.72;;;;;;;;;;10393801;28;20133;-80
2022/05/11 23:10:44;;;;;;;8.02;6.63;;;;;;;;;;10361330;28;20041;-78
2022/05/11 23:15:45;;;;;;;7.00;6.40;;;;;;;;;;10396185;28;20042;-79
2022/05/11 23:20:46;;;;;;;7.25;6.55;;;;;;;;;;10387497;28;20342;-79
2022/05/11 23:25:50;;;;;;;7.22;6.30;;;;;;;;;;10377089;28;20132;-79
2022/05/11 23:30:50;;;;;;;8.02;7.05;;;;;;;;;;10392306;28;20080;-80
2022/05/11 23:35:51;;;;;;;6.38;5.80;;;;;;;;;;10395305;28;20048;-78
2022/05/11 23:40:51;;;;;;;6.93;6.22;;;;;;;;;;10408753;28;20034;-78
2022/05/11 23:45:52;;;;;;;8.03;7.27;;;;;;;;;;10401055;28;20057;-79
2022/05/11 23:50:54;;;;;;;7.60;6.90;;;;;;;;;;10375030;28;20072;-80
2022/05/11 23:55:57;;;;;;;7.60;6.85;;;;;;;;;;10359241;28;20121;-79
